createdAt,value
2023-06-10T00:00:55.121Z,414.00
2023-06-10T00:01:55.150Z,413.00
2023-06-10T00:02:55.232Z,415.00
2023-06-10T00:03:55.345Z,413.00
2023-06-10T00:04:55.325Z,411.00
2023-06-10T00:05:55.272Z,411.00
2023-06-10T00:06:55.279Z,410.00
2023-06-10T00:07:55.299Z,408.00
2023-06-10T00:08:55.300Z,406.00
2023-06-10T00:09:55.312Z,407.00
2023-06-10T00:10:55.318Z,408.00
2023-06-10T00:11:55.333Z,408.00
2023-06-10T00:12:55.332Z,407.00
2023-06-10T00:13:55.338Z,409.00
2023-06-10T00:14:55.334Z,409.00
2023-06-10T00:15:55.390Z,411.00
2023-06-10T00:16:55.334Z,411.00
2023-06-10T00:17:55.383Z,412.00
2023-06-10T00:18:55.347Z,411.00
2023-06-10T00:19:55.342Z,408.00
2023-06-10T00:20:55.365Z,408.00
2023-06-10T00:21:55.356Z,408.00
2023-06-10T00:22:55.360Z,409.00
2023-06-10T00:23:55.414Z,412.00
2023-06-10T00:24:55.403Z,411.00
2023-06-10T00:25:55.412Z,412.00
2023-06-10T00:26:55.402Z,413.00
2023-06-10T00:27:55.421Z,411.00
2023-06-10T00:28:55.415Z,411.00
2023-06-10T00:29:55.409Z,410.00
2023-06-10T00:30:55.422Z,411.00
2023-06-10T00:31:55.456Z,408.00
2023-06-10T00:32:55.494Z,404.00
2023-06-10T00:33:55.436Z,401.00
2023-06-10T00:34:55.443Z,401.00
2023-06-10T00:35:55.473Z,402.00
2023-06-10T00:36:55.485Z,401.00
2023-06-10T00:37:55.537Z,402.00
2023-06-10T00:38:55.539Z,402.00
2023-06-10T00:39:55.554Z,403.00
2023-06-10T00:40:55.581Z,404.00
2023-06-10T00:41:55.614Z,404.00
2023-06-10T00:42:55.642Z,406.00
2023-06-10T00:43:55.656Z,405.00
2023-06-10T00:44:55.689Z,408.00
2023-06-10T00:45:55.776Z,408.00
2023-06-10T00:46:55.731Z,410.00
2023-06-10T00:47:55.833Z,411.00
2023-06-10T00:48:55.787Z,412.00
2023-06-10T00:49:55.825Z,411.00
2023-06-10T00:50:55.848Z,414.00
2023-06-10T00:51:55.869Z,412.00
2023-06-10T00:52:56.067Z,409.00
2023-06-10T00:53:55.925Z,409.00
2023-06-10T00:54:55.949Z,411.00
2023-06-10T00:55:55.983Z,413.00
2023-06-10T00:56:56.002Z,411.00
2023-06-10T00:57:56.037Z,409.00
2023-06-10T00:58:56.052Z,410.00
2023-06-10T00:59:56.095Z,411.00
2023-06-10T01:00:56.137Z,412.00
2023-06-10T01:01:56.142Z,415.00
2023-06-10T01:02:56.307Z,416.00
2023-06-10T01:03:56.214Z,416.00
2023-06-10T01:04:56.253Z,416.00
2023-06-10T01:05:56.260Z,414.00
2023-06-10T01:06:56.307Z,416.00
2023-06-10T01:07:56.334Z,417.00
2023-06-10T01:08:56.339Z,416.00
2023-06-10T01:09:56.357Z,417.00
2023-06-10T01:10:56.356Z,416.00
2023-06-10T01:11:56.357Z,418.00
2023-06-10T01:12:56.364Z,418.00
2023-06-10T01:13:56.351Z,419.00
2023-06-10T01:14:56.388Z,418.00
2023-06-10T01:15:56.381Z,417.00
2023-06-10T01:16:56.419Z,419.00
2023-06-10T01:17:56.440Z,421.00
2023-06-10T01:18:56.383Z,423.00
2023-06-10T01:19:56.424Z,424.00
2023-06-10T01:20:56.403Z,423.00
2023-06-10T01:21:56.423Z,420.00
2023-06-10T01:22:56.430Z,419.00
2023-06-10T01:23:56.467Z,419.00
2023-06-10T01:24:56.443Z,419.00
2023-06-10T01:25:56.448Z,423.00
2023-06-10T01:26:56.454Z,425.00
2023-06-10T01:27:56.474Z,423.00
2023-06-10T01:28:56.466Z,422.00
2023-06-10T01:29:56.483Z,422.00
2023-06-10T01:30:56.500Z,423.00
2023-06-10T01:31:56.494Z,423.00
2023-06-10T01:32:56.549Z,422.00
2023-06-10T01:33:56.516Z,422.00
2023-06-10T01:34:56.537Z,424.00
2023-06-10T01:35:56.543Z,428.00
2023-06-10T01:36:56.554Z,427.00
2023-06-10T01:37:56.566Z,426.00
2023-06-10T01:38:56.574Z,426.00
2023-06-10T01:39:56.574Z,426.00
2023-06-10T01:40:56.581Z,425.00
2023-06-10T01:41:56.595Z,427.00
2023-06-10T01:42:56.605Z,424.00
2023-06-10T01:43:56.615Z,423.00
2023-06-10T01:44:56.620Z,421.00
2023-06-10T01:45:56.638Z,421.00
2023-06-10T01:46:56.850Z,421.00
2023-06-10T01:47:56.706Z,420.00
2023-06-10T01:48:56.681Z,420.00
2023-06-10T01:49:56.669Z,420.00
2023-06-10T01:50:56.674Z,419.00
2023-06-10T01:51:56.711Z,420.00
2023-06-10T01:52:56.698Z,418.00
2023-06-10T01:53:56.692Z,420.00
2023-06-10T01:54:56.715Z,421.00
2023-06-10T01:55:56.718Z,419.00
2023-06-10T01:56:56.733Z,418.00
2023-06-10T01:57:56.758Z,417.00
2023-06-10T01:58:56.747Z,418.00
2023-06-10T01:59:56.769Z,418.00
2023-06-10T02:00:56.851Z,418.00
2023-06-10T02:01:56.822Z,417.00
2023-06-10T02:02:56.839Z,417.00
2023-06-10T02:03:56.848Z,418.00
2023-06-10T02:04:56.820Z,414.00
2023-06-10T02:05:56.823Z,414.00
2023-06-10T02:06:56.817Z,413.00
2023-06-10T02:07:56.821Z,413.00
2023-06-10T02:08:56.831Z,413.00
2023-06-10T02:09:56.834Z,414.00
2023-06-10T02:10:56.827Z,415.00
2023-06-10T02:11:56.847Z,418.00
2023-06-10T02:12:56.849Z,420.00
2023-06-10T02:13:56.838Z,422.00
2023-06-10T02:14:56.865Z,424.00
2023-06-10T02:15:56.875Z,424.00
2023-06-10T02:16:56.960Z,425.00
2023-06-10T02:17:56.969Z,426.00
2023-06-10T02:18:56.936Z,424.00
2023-06-10T02:19:56.969Z,423.00
2023-06-10T02:20:57.016Z,425.00
2023-06-10T02:21:57.052Z,427.00
2023-06-10T02:22:57.092Z,425.00
2023-06-10T02:23:57.160Z,423.00
2023-06-10T02:24:57.142Z,421.00
2023-06-10T02:25:57.179Z,420.00
2023-06-10T02:26:57.194Z,421.00
2023-06-10T02:27:57.226Z,420.00
2023-06-10T02:28:57.266Z,420.00
2023-06-10T02:29:57.272Z,423.00
2023-06-10T02:30:57.279Z,427.00
2023-06-10T02:31:57.343Z,427.00
2023-06-10T02:32:57.409Z,429.00
2023-06-10T02:33:57.327Z,429.00
2023-06-10T02:34:57.342Z,427.00
2023-06-10T02:35:57.345Z,427.00
2023-06-10T02:36:57.350Z,424.00
2023-06-10T02:37:57.363Z,425.00
2023-06-10T02:38:57.370Z,429.00
2023-06-10T02:39:57.391Z,429.00
2023-06-10T02:40:57.388Z,429.00
2023-06-10T02:41:57.417Z,430.00
2023-06-10T02:42:57.423Z,431.00
2023-06-10T02:43:57.434Z,431.00
2023-06-10T02:44:57.437Z,430.00
2023-06-10T02:45:57.542Z,430.00
2023-06-10T02:46:57.478Z,429.00
2023-06-10T02:47:57.532Z,429.00
2023-06-10T02:48:57.507Z,429.00
2023-06-10T02:49:57.502Z,428.00
2023-06-10T02:50:57.526Z,428.00
2023-06-10T02:51:57.523Z,431.00
2023-06-10T02:52:57.545Z,431.00
2023-06-10T02:53:57.531Z,434.00
2023-06-10T02:54:57.559Z,437.00
2023-06-10T02:55:57.562Z,442.00
2023-06-10T02:56:57.560Z,445.00
2023-06-10T02:57:57.594Z,446.00
2023-06-10T02:58:57.600Z,446.00
2023-06-10T02:59:57.617Z,447.00
2023-06-10T03:00:57.651Z,448.00
2023-06-10T03:01:57.718Z,449.00
2023-06-10T03:02:57.795Z,450.00
2023-06-10T03:03:57.838Z,452.00
2023-06-10T03:04:57.815Z,453.00
2023-06-10T03:05:57.961Z,455.00
2023-06-10T03:06:58.006Z,456.00
2023-06-10T03:07:58.078Z,459.00
2023-06-10T03:08:58.197Z,460.00
2023-06-10T03:09:58.215Z,460.00
2023-06-10T03:10:58.296Z,459.00
2023-06-10T03:11:58.377Z,459.00
2023-06-10T03:12:58.473Z,460.00
2023-06-10T03:13:58.504Z,458.00
2023-06-10T03:14:58.623Z,456.00
2023-06-10T03:15:58.699Z,455.00
2023-06-10T03:16:58.771Z,454.00
2023-06-10T03:17:58.863Z,456.00
2023-06-10T03:18:58.884Z,457.00
2023-06-10T03:19:58.884Z,458.00
2023-06-10T03:20:58.906Z,461.00
2023-06-10T03:21:58.919Z,460.00
2023-06-10T03:22:58.954Z,462.00
2023-06-10T03:23:59.032Z,463.00
2023-06-10T03:24:59.006Z,465.00
2023-06-10T03:25:59.044Z,465.00
2023-06-10T03:26:59.089Z,463.00
2023-06-10T03:27:59.115Z,462.00
2023-06-10T03:28:59.139Z,460.00
2023-06-10T03:29:59.174Z,463.00
2023-06-10T03:30:59.209Z,464.00
2023-06-10T03:31:59.310Z,466.00
2023-06-10T03:32:59.290Z,466.00
2023-06-10T03:33:59.322Z,466.00
2023-06-10T03:34:59.345Z,467.00
2023-06-10T03:35:59.342Z,465.00
2023-06-10T03:36:59.452Z,463.00
2023-06-10T03:37:59.420Z,464.00
2023-06-10T03:38:59.436Z,465.00
2023-06-10T03:39:59.463Z,463.00
2023-06-10T03:40:59.503Z,464.00
2023-06-10T03:41:59.522Z,465.00
2023-06-10T03:42:59.568Z,467.00
2023-06-10T03:43:59.598Z,468.00
2023-06-10T03:44:59.618Z,468.00
2023-06-10T03:45:59.723Z,468.00
2023-06-10T03:46:59.683Z,467.00
2023-06-10T03:47:59.718Z,465.00
2023-06-10T03:48:59.733Z,466.00
2023-06-10T03:49:59.747Z,463.00
2023-06-10T03:50:59.783Z,463.00
2023-06-10T03:51:59.814Z,465.00
2023-06-10T03:52:59.853Z,464.00
2023-06-10T03:53:59.872Z,462.00
2023-06-10T03:54:59.912Z,462.00
2023-06-10T03:55:59.931Z,461.00
2023-06-10T03:56:59.949Z,462.00
2023-06-10T03:57:59.985Z,462.00
2023-06-10T03:59:00.032Z,459.00
2023-06-10T04:00:00.054Z,459.00
2023-06-10T04:01:00.091Z,461.00
2023-06-10T04:02:00.250Z,461.00
2023-06-10T04:03:00.185Z,463.00
2023-06-10T04:04:00.202Z,464.00
2023-06-10T04:05:00.202Z,465.00
2023-06-10T04:06:00.250Z,467.00
2023-06-10T04:07:00.253Z,467.00
2023-06-10T04:08:00.287Z,469.00
2023-06-10T04:09:00.335Z,468.00
2023-06-10T04:10:00.406Z,467.00
2023-06-10T04:11:00.485Z,470.00
2023-06-10T04:12:00.536Z,469.00
2023-06-10T04:13:00.614Z,468.00
2023-06-10T04:14:00.687Z,468.00
2023-06-10T04:15:00.753Z,468.00
2023-06-10T04:16:00.820Z,468.00
2023-06-10T04:17:00.940Z,467.00
2023-06-10T04:18:01.037Z,466.00
2023-06-10T04:19:01.031Z,468.00
2023-06-10T04:20:01.118Z,470.00
2023-06-10T04:21:01.191Z,467.00
2023-06-10T04:22:01.241Z,465.00
2023-06-10T04:23:01.320Z,468.00
2023-06-10T04:24:01.411Z,468.00
2023-06-10T04:25:01.467Z,468.00
2023-06-10T04:26:01.495Z,466.00
2023-06-10T04:27:01.541Z,466.00
2023-06-10T04:28:01.561Z,467.00
2023-06-10T04:29:01.602Z,468.00
2023-06-10T04:30:01.628Z,470.00
2023-06-10T04:31:01.677Z,470.00
2023-06-10T04:32:01.725Z,472.00
2023-06-10T04:33:01.783Z,473.00
2023-06-10T04:34:01.756Z,472.00
2023-06-10T04:35:01.800Z,472.00
2023-06-10T04:36:01.828Z,475.00
2023-06-10T04:37:01.856Z,476.00
2023-06-10T04:38:01.893Z,474.00
2023-06-10T04:39:01.917Z,471.00
2023-06-10T04:40:01.941Z,469.00
2023-06-10T04:41:01.977Z,470.00
2023-06-10T04:42:02.009Z,470.00
2023-06-10T04:43:02.088Z,470.00
2023-06-10T04:44:02.148Z,467.00
2023-06-10T04:45:02.215Z,469.00
2023-06-10T04:46:02.286Z,470.00
2023-06-10T04:47:02.418Z,471.00
2023-06-10T04:48:02.464Z,472.00
2023-06-10T04:49:02.515Z,473.00
2023-06-10T04:50:02.578Z,472.00
2023-06-10T04:51:02.660Z,472.00
2023-06-10T04:52:02.743Z,470.00
2023-06-10T04:53:02.777Z,468.00
2023-06-10T04:54:02.802Z,468.00
2023-06-10T04:55:02.820Z,467.00
2023-06-10T04:56:02.857Z,468.00
2023-06-10T04:57:02.895Z,467.00
2023-06-10T04:58:02.937Z,466.00
2023-06-10T04:59:03.007Z,464.00
2023-06-10T05:00:02.995Z,464.00
2023-06-10T05:01:03.094Z,462.00
2023-06-10T05:02:03.152Z,462.00
2023-06-10T05:03:03.244Z,459.00
2023-06-10T05:04:03.220Z,459.00
2023-06-10T05:05:03.152Z,457.00
2023-06-10T05:06:03.188Z,456.00
2023-06-10T05:07:03.228Z,454.00
2023-06-10T05:08:04.920Z,453.00
2023-06-10T05:09:03.308Z,456.00
2023-06-10T05:10:03.344Z,458.00
2023-06-10T05:11:03.362Z,457.00
2023-06-10T05:12:03.411Z,458.00
2023-06-10T05:13:03.437Z,458.00
2023-06-10T05:14:03.477Z,456.00
2023-06-10T05:15:03.565Z,456.00
2023-06-10T05:16:03.556Z,453.00
2023-06-10T05:17:03.593Z,451.00
2023-06-10T05:18:03.751Z,452.00
2023-06-10T05:19:06.303Z,453.00
2023-06-10T05:20:03.684Z,456.00
2023-06-10T05:21:03.720Z,457.00
2023-06-10T05:22:03.765Z,456.00
2023-06-10T05:23:03.789Z,459.00
2023-06-10T05:24:03.885Z,460.00
2023-06-10T05:25:03.843Z,461.00
2023-06-10T05:26:03.858Z,460.00
2023-06-10T05:27:03.902Z,460.00
2023-06-10T05:28:03.944Z,459.00
2023-06-10T05:29:03.966Z,459.00
2023-06-10T05:30:03.989Z,459.00
2023-06-10T05:31:04.026Z,461.00
2023-06-10T05:32:04.221Z,463.00
2023-06-10T05:33:04.099Z,464.00
2023-06-10T05:34:04.134Z,465.00
2023-06-10T05:35:04.128Z,466.00
2023-06-10T05:36:04.156Z,468.00
2023-06-10T05:37:04.182Z,466.00
2023-06-10T05:38:04.426Z,467.00
2023-06-10T05:39:04.258Z,464.00
2023-06-10T05:40:04.298Z,463.00
2023-06-10T05:41:04.313Z,463.00
2023-06-10T05:42:04.337Z,461.00
2023-06-10T05:43:04.423Z,462.00
2023-06-10T05:44:04.399Z,463.00
2023-06-10T05:45:04.433Z,460.00
2023-06-10T05:46:04.524Z,462.00
2023-06-10T05:47:04.543Z,461.00
2023-06-10T05:48:04.649Z,460.00
2023-06-10T05:49:04.667Z,458.00
2023-06-10T05:50:04.709Z,457.00
2023-06-10T05:51:04.764Z,457.00
2023-06-10T05:52:04.846Z,460.00
2023-06-10T05:53:04.923Z,459.00
2023-06-10T05:54:05.022Z,456.00
2023-06-10T05:55:05.037Z,453.00
2023-06-10T05:56:05.064Z,454.00
2023-06-10T05:57:05.091Z,450.00
2023-06-10T05:58:05.126Z,449.00
2023-06-10T05:59:05.166Z,451.00
2023-06-10T06:00:05.189Z,450.00
2023-06-10T06:01:05.243Z,448.00
2023-06-10T06:02:05.291Z,448.00
2023-06-10T06:03:05.387Z,449.00
2023-06-10T06:04:05.318Z,449.00
2023-06-10T06:05:05.445Z,448.00
2023-06-10T06:06:05.402Z,449.00
2023-06-10T06:07:05.407Z,450.00
2023-06-10T06:08:05.436Z,448.00
2023-06-10T06:09:05.474Z,447.00
2023-06-10T06:10:05.497Z,445.00
2023-06-10T06:11:05.525Z,444.00
2023-06-10T06:12:05.560Z,444.00
2023-06-10T06:13:05.597Z,443.00
2023-06-10T06:14:05.628Z,441.00
2023-06-10T06:15:05.657Z,439.00
2023-06-10T06:16:05.712Z,440.00
2023-06-10T06:17:05.706Z,442.00
2023-06-10T06:18:05.918Z,443.00
2023-06-10T06:19:05.767Z,441.00
2023-06-10T06:20:05.795Z,441.00
2023-06-10T06:21:05.840Z,442.00
2023-06-10T06:22:05.865Z,442.00
2023-06-10T06:23:05.907Z,443.00
2023-06-10T06:24:06.143Z,439.00
2023-06-10T06:25:06.012Z,439.00
2023-06-10T06:26:08.758Z,445.00
2023-06-10T06:27:06.046Z,445.00
2023-06-10T06:28:06.065Z,444.00
2023-06-10T06:29:06.063Z,442.00
2023-06-10T06:30:06.082Z,442.00
2023-06-10T06:31:06.142Z,440.00
2023-06-10T06:32:06.139Z,440.00
2023-06-10T06:33:06.262Z,440.00
2023-06-10T06:34:06.185Z,441.00
2023-06-10T06:35:06.390Z,438.00
2023-06-10T06:36:06.291Z,439.00
2023-06-10T06:37:06.306Z,437.00
2023-06-10T06:38:06.320Z,438.00
2023-06-10T06:39:06.325Z,436.00
2023-06-10T06:40:06.322Z,437.00
2023-06-10T06:41:06.345Z,435.00
2023-06-10T06:42:06.419Z,434.00
2023-06-10T06:43:06.421Z,434.00
2023-06-10T06:44:06.406Z,433.00
2023-06-10T06:45:06.487Z,430.00
2023-06-10T06:46:06.452Z,430.00
2023-06-10T06:47:06.460Z,430.00
2023-06-10T06:48:06.641Z,430.00
2023-06-10T06:49:06.517Z,429.00
2023-06-10T06:50:06.578Z,427.00
2023-06-10T06:51:06.594Z,427.00
2023-06-10T06:52:06.591Z,427.00
2023-06-10T06:53:06.607Z,430.00
2023-06-10T06:54:06.648Z,427.00
2023-06-10T06:55:06.841Z,425.00
2023-06-10T06:56:06.682Z,427.00
2023-06-10T06:57:06.692Z,425.00
2023-06-10T06:58:06.712Z,423.00
2023-06-10T06:59:06.740Z,421.00
2023-06-10T07:00:06.752Z,421.00
2023-06-10T07:01:06.808Z,418.00
2023-06-10T07:02:06.805Z,419.00
2023-06-10T07:03:06.875Z,419.00
2023-06-10T07:04:06.869Z,418.00
2023-06-10T07:05:07.017Z,416.00
2023-06-10T07:06:06.866Z,419.00
2023-06-10T07:07:06.881Z,417.00
2023-06-10T07:08:06.944Z,416.00
2023-06-10T07:09:07.001Z,419.00
2023-06-10T07:10:07.085Z,418.00
2023-06-10T07:11:07.145Z,418.00
2023-06-10T07:12:07.224Z,418.00
2023-06-10T07:13:07.326Z,416.00
2023-06-10T07:14:07.384Z,416.00
2023-06-10T07:15:07.722Z,415.00
2023-06-10T07:16:07.551Z,413.00
2023-06-10T07:17:07.735Z,414.00
2023-06-10T07:18:07.765Z,413.00
2023-06-10T07:19:07.766Z,414.00
2023-06-10T07:20:07.925Z,415.00
2023-06-10T07:21:07.925Z,415.00
2023-06-10T07:22:07.964Z,413.00
2023-06-10T07:23:08.057Z,413.00
2023-06-10T07:24:08.172Z,416.00
2023-06-10T07:25:08.357Z,416.00
2023-06-10T07:26:08.246Z,416.00
2023-06-10T07:27:08.328Z,415.00
2023-06-10T07:28:08.397Z,414.00
2023-06-10T07:29:08.460Z,412.00
2023-06-10T07:30:08.530Z,411.00
2023-06-10T07:31:08.623Z,410.00
2023-06-10T07:32:08.672Z,408.00
2023-06-10T07:33:08.901Z,409.00
2023-06-10T07:34:08.780Z,411.00
2023-06-10T07:35:09.162Z,409.00
2023-06-10T07:36:08.889Z,407.00
2023-06-10T07:37:08.944Z,407.00
2023-06-10T07:38:09.011Z,406.00
2023-06-10T07:39:09.069Z,407.00
2023-06-10T07:40:09.126Z,403.00
2023-06-10T07:41:09.156Z,402.00
2023-06-10T07:42:09.206Z,401.00
2023-06-10T07:43:09.250Z,401.00
2023-06-10T07:44:09.305Z,401.00
2023-06-10T07:45:09.509Z,402.00
2023-06-10T07:46:09.412Z,402.00
2023-06-10T07:47:09.407Z,405.00
2023-06-10T07:48:09.475Z,407.00
2023-06-10T07:49:09.492Z,408.00
2023-06-10T07:50:09.549Z,411.00
2023-06-10T07:51:09.580Z,413.00
2023-06-10T07:52:09.645Z,412.00
2023-06-10T07:53:09.663Z,408.00
2023-06-10T07:54:09.691Z,410.00
2023-06-10T07:55:09.922Z,410.00
2023-06-10T07:56:09.704Z,410.00
2023-06-10T07:57:09.727Z,410.00
2023-06-10T07:58:09.724Z,410.00
2023-06-10T07:59:09.723Z,410.00
2023-06-10T08:00:09.727Z,410.00
2023-06-10T08:01:09.733Z,411.00
2023-06-10T08:02:09.736Z,410.00
2023-06-10T08:03:09.852Z,408.00
2023-06-10T08:04:09.879Z,406.00
2023-06-10T08:05:09.945Z,405.00
2023-06-10T08:06:09.766Z,404.00
2023-06-10T08:07:09.758Z,403.00
2023-06-10T08:08:09.795Z,402.00
2023-06-10T08:09:09.785Z,404.00
2023-06-10T08:10:09.822Z,405.00
2023-06-10T08:11:09.808Z,405.00
2023-06-10T08:12:09.791Z,405.00
2023-06-10T08:13:09.800Z,404.00
2023-06-10T08:14:09.786Z,406.00
2023-06-10T08:15:10.072Z,406.00
2023-06-10T08:16:09.814Z,408.00
2023-06-10T08:17:09.820Z,409.00
2023-06-10T08:18:09.987Z,407.00
2023-06-10T08:19:09.885Z,406.00
2023-06-10T08:20:09.923Z,406.00
2023-06-10T08:21:09.932Z,406.00
2023-06-10T08:22:09.961Z,407.00
2023-06-10T08:23:10.029Z,409.00
2023-06-10T08:24:10.054Z,408.00
2023-06-10T08:25:10.295Z,407.00
2023-06-10T08:26:10.048Z,406.00
2023-06-10T08:27:10.090Z,405.00
2023-06-10T08:28:10.119Z,406.00
2023-06-10T08:29:10.133Z,407.00
2023-06-10T08:30:10.140Z,406.00
2023-06-10T08:31:10.184Z,404.00
2023-06-10T08:32:10.237Z,403.00
2023-06-10T08:33:10.304Z,403.00
2023-06-10T08:34:10.242Z,402.00
2023-06-10T08:35:10.556Z,403.00
2023-06-10T08:36:10.256Z,402.00
2023-06-10T08:37:10.281Z,401.00
2023-06-10T08:38:10.296Z,400.00
2023-06-10T08:39:10.257Z,399.00
2023-06-10T08:40:10.254Z,401.00
2023-06-10T08:41:10.266Z,401.00
2023-06-10T08:42:10.268Z,402.00
2023-06-10T08:43:10.262Z,403.00
2023-06-10T08:44:10.282Z,403.00
2023-06-10T08:45:10.566Z,405.00
2023-06-10T08:46:10.278Z,406.00
2023-06-10T08:47:10.312Z,407.00
2023-06-10T08:48:10.462Z,406.00
2023-06-10T08:49:10.353Z,407.00
2023-06-10T08:50:12.609Z,407.00
2023-06-10T08:51:10.333Z,405.00
2023-06-10T08:52:10.319Z,401.00
2023-06-10T08:53:10.346Z,399.00
2023-06-10T08:54:10.312Z,402.00
2023-06-10T08:55:10.440Z,406.00
2023-06-10T08:56:10.339Z,407.00
2023-06-10T08:57:10.363Z,406.00
2023-06-10T08:58:10.388Z,407.00
2023-06-10T08:59:10.393Z,407.00
2023-06-10T09:00:10.545Z,405.00
2023-06-10T09:01:10.377Z,405.00
2023-06-10T09:02:10.384Z,405.00
2023-06-10T09:03:10.413Z,402.00
2023-06-10T09:04:10.348Z,402.00
2023-06-10T09:05:10.347Z,403.00
2023-06-10T09:06:10.360Z,403.00
2023-06-10T09:07:10.349Z,402.00
2023-06-10T09:08:10.428Z,402.00
2023-06-10T09:09:10.317Z,402.00
2023-06-10T09:10:10.556Z,400.00
2023-06-10T09:11:10.318Z,399.00
2023-06-10T09:12:10.343Z,397.00
2023-06-10T09:13:10.403Z,397.00
2023-06-10T09:14:10.393Z,399.00
2023-06-10T09:15:10.386Z,401.00
2023-06-10T09:16:10.407Z,402.00
2023-06-10T09:17:10.398Z,401.00
2023-06-10T09:18:10.439Z,401.00
2023-06-10T09:19:10.387Z,401.00
2023-06-10T09:20:10.907Z,400.00
2023-06-10T09:21:10.389Z,403.00
2023-06-10T09:22:10.403Z,403.00
2023-06-10T09:23:10.303Z,404.00
2023-06-10T09:24:10.354Z,406.00
2023-06-10T09:25:10.493Z,405.00
2023-06-10T09:26:10.753Z,404.00
2023-06-10T09:27:10.262Z,404.00
2023-06-10T09:28:10.266Z,403.00
2023-06-10T09:29:10.256Z,402.00
2023-06-10T09:30:10.534Z,402.00
2023-06-10T09:31:10.403Z,403.00
2023-06-10T09:32:10.781Z,402.00
2023-06-10T09:33:10.350Z,403.00
2023-06-10T09:34:10.212Z,403.00
2023-06-10T09:35:10.208Z,402.00
2023-06-10T09:36:10.201Z,403.00
2023-06-10T09:37:10.223Z,405.00
2023-06-10T09:38:10.883Z,406.00
2023-06-10T09:39:10.337Z,404.00
2023-06-10T09:40:10.638Z,405.00
2023-06-10T09:41:10.470Z,404.00
2023-06-10T09:42:10.537Z,404.00
2023-06-10T09:43:10.532Z,406.00
2023-06-10T09:44:10.533Z,406.00
2023-06-10T09:45:10.530Z,408.00
2023-06-10T09:46:10.570Z,408.00
2023-06-10T09:47:10.513Z,408.00
2023-06-10T09:48:10.566Z,406.00
2023-06-10T09:49:10.512Z,407.00
2023-06-10T09:50:11.493Z,408.00
2023-06-10T09:51:10.595Z,410.00
2023-06-10T09:52:10.527Z,409.00
2023-06-10T09:53:10.505Z,410.00
2023-06-10T09:54:10.500Z,409.00
2023-06-10T09:55:10.543Z,407.00
2023-06-10T09:56:11.145Z,408.00
2023-06-10T09:57:10.688Z,406.00
2023-06-10T09:58:10.639Z,407.00
2023-06-10T09:59:10.669Z,405.00
2023-06-10T10:00:11.093Z,404.00
2023-06-10T10:01:10.804Z,404.00
2023-06-10T10:02:11.409Z,404.00
2023-06-10T10:03:11.016Z,407.00
2023-06-10T10:04:10.942Z,405.00
2023-06-10T10:05:11.220Z,403.00
2023-06-10T10:06:11.020Z,403.00
2023-06-10T10:07:10.993Z,403.00
2023-06-10T10:08:11.034Z,402.00
2023-06-10T10:09:11.062Z,399.00
2023-06-10T10:10:11.002Z,398.00
2023-06-10T10:11:11.012Z,399.00
2023-06-10T10:12:10.972Z,400.00
2023-06-10T10:13:10.971Z,402.00
2023-06-10T10:14:11.053Z,403.00
2023-06-10T10:15:11.193Z,404.00
2023-06-10T10:16:11.010Z,404.00
2023-06-10T10:17:11.165Z,404.00
2023-06-10T10:18:11.200Z,405.00
2023-06-10T10:19:11.107Z,404.00
2023-06-10T10:20:11.155Z,402.00
2023-06-10T10:21:11.204Z,401.00
2023-06-10T10:22:11.232Z,402.00
2023-06-10T10:23:11.229Z,403.00
2023-06-10T10:24:11.381Z,403.00
2023-06-10T10:25:11.604Z,404.00
2023-06-10T10:26:11.272Z,404.00
2023-06-10T10:27:11.288Z,405.00
2023-06-10T10:28:11.320Z,403.00
2023-06-10T10:29:11.269Z,401.00
2023-06-10T10:30:11.309Z,400.00
2023-06-10T10:31:11.309Z,402.00
2023-06-10T10:32:11.359Z,405.00
2023-06-10T10:33:11.476Z,408.00
2023-06-10T10:34:11.341Z,408.00
2023-06-10T10:35:11.575Z,405.00
2023-06-10T10:36:11.248Z,404.00
2023-06-10T10:37:11.353Z,404.00
2023-06-10T10:38:11.358Z,404.00
2023-06-10T10:39:11.339Z,406.00
2023-06-10T10:40:11.330Z,403.00
2023-06-10T10:41:11.325Z,404.00
2023-06-10T10:42:11.343Z,405.00
2023-06-10T10:43:11.340Z,408.00
2023-06-10T10:44:11.325Z,407.00
2023-06-10T10:45:11.615Z,407.00
2023-06-10T10:46:11.405Z,406.00
2023-06-10T10:47:11.309Z,407.00
2023-06-10T10:48:11.354Z,406.00
2023-06-10T10:49:11.415Z,408.00
2023-06-10T10:50:13.917Z,409.00
2023-06-10T10:51:11.449Z,411.00
2023-06-10T10:52:11.459Z,409.00
2023-06-10T10:53:11.465Z,407.00
2023-06-10T10:54:11.433Z,406.00
2023-06-10T10:55:11.556Z,408.00
2023-06-10T10:56:13.706Z,408.00
2023-06-10T10:57:11.477Z,405.00
2023-06-10T10:58:11.423Z,407.00
2023-06-10T10:59:11.436Z,407.00
2023-06-10T11:00:11.490Z,406.00
2023-06-10T11:01:11.448Z,407.00
2023-06-10T11:02:11.458Z,408.00
2023-06-10T11:03:12.241Z,406.00
2023-06-10T11:04:11.720Z,405.00
2023-06-10T11:05:11.993Z,408.00
2023-06-10T11:06:11.412Z,409.00
2023-06-10T11:07:11.430Z,408.00
2023-06-10T11:08:11.381Z,408.00
2023-06-10T11:09:11.391Z,407.00
2023-06-10T11:10:11.379Z,408.00
2023-06-10T11:11:11.367Z,408.00
2023-06-10T11:12:11.358Z,409.00
2023-06-10T11:13:11.356Z,411.00
2023-06-10T11:14:11.354Z,410.00
2023-06-10T11:15:11.605Z,410.00
2023-06-10T11:16:11.358Z,410.00
2023-06-10T11:17:11.353Z,409.00
2023-06-10T11:18:11.323Z,409.00
2023-06-10T11:19:11.300Z,407.00
2023-06-10T11:20:11.278Z,407.00
2023-06-10T11:21:11.285Z,408.00
2023-06-10T11:22:11.296Z,407.00
2023-06-10T11:23:11.255Z,406.00
2023-06-10T11:24:11.407Z,404.00
2023-06-10T11:25:11.496Z,404.00
2023-06-10T11:26:11.361Z,404.00
2023-06-10T11:27:11.402Z,405.00
2023-06-10T11:28:11.498Z,405.00
2023-06-10T11:29:11.486Z,403.00
2023-06-10T11:30:11.517Z,402.00
2023-06-10T11:31:11.664Z,403.00
2023-06-10T11:32:11.664Z,404.00
2023-06-10T11:33:11.755Z,403.00
2023-06-10T11:34:11.703Z,404.00
2023-06-10T11:35:12.179Z,404.00
2023-06-10T11:36:11.746Z,405.00
2023-06-10T11:37:11.775Z,406.00
2023-06-10T11:38:11.835Z,408.00
2023-06-10T11:39:11.854Z,408.00
2023-06-10T11:40:11.926Z,407.00
2023-06-10T11:41:11.917Z,402.00
2023-06-10T11:42:11.949Z,403.00
2023-06-10T11:43:11.993Z,404.00
2023-06-10T11:44:12.057Z,403.00
2023-06-10T11:45:12.314Z,404.00
2023-06-10T11:46:12.143Z,405.00
2023-06-10T11:47:12.169Z,407.00
2023-06-10T11:48:12.210Z,407.00
2023-06-10T11:49:12.232Z,408.00
2023-06-10T11:50:12.278Z,410.00
2023-06-10T11:51:12.312Z,407.00
2023-06-10T11:52:12.364Z,405.00
2023-06-10T11:53:12.390Z,404.00
2023-06-10T11:54:12.429Z,405.00
2023-06-10T11:55:12.788Z,406.00
2023-06-10T11:56:12.426Z,407.00
2023-06-10T11:57:12.394Z,406.00
2023-06-10T11:58:12.386Z,406.00
2023-06-10T11:59:12.381Z,405.00
2023-06-10T12:00:12.344Z,405.00
2023-06-10T12:01:13.310Z,405.00
2023-06-10T12:02:12.428Z,405.00
2023-06-10T12:03:12.394Z,406.00
2023-06-10T12:04:12.333Z,404.00
2023-06-10T12:05:12.659Z,404.00
2023-06-10T12:06:12.271Z,403.00
2023-06-10T12:07:12.266Z,405.00
2023-06-10T12:08:12.285Z,407.00
2023-06-10T12:09:22.760Z,407.00
2023-06-10T12:10:26.840Z,408.00
2023-06-10T12:11:13.196Z,409.00
2023-06-10T12:12:12.181Z,409.00
2023-06-10T12:13:12.157Z,408.00
2023-06-10T12:14:12.148Z,409.00
2023-06-10T12:15:12.442Z,409.00
2023-06-10T12:16:12.174Z,408.00
2023-06-10T12:17:12.105Z,408.00
2023-06-10T12:18:12.115Z,408.00
2023-06-10T12:19:12.078Z,407.00
2023-06-10T12:20:12.058Z,407.00
2023-06-10T12:21:12.028Z,405.00
2023-06-10T12:22:12.008Z,405.00
2023-06-10T12:23:12.000Z,403.00
2023-06-10T12:24:12.050Z,402.00
2023-06-10T12:25:12.673Z,403.00
2023-06-10T12:26:11.958Z,405.00
2023-06-10T12:27:11.936Z,406.00
2023-06-10T12:28:11.934Z,406.00
2023-06-10T12:29:11.902Z,405.00